Tallahassee, Florida
Current Conditions -  °F | °C
As of 7:53 PM on Friday 19 Dec 2014 (Local Time) from KTLH Reporting Station
Light Rain Light Rain  
Wind Chill: 12°   Ceiling: 10000
Heat Index: 12°   Visibility: 10mi
Dew Point:   Wind: 7mph
Humidity: 83%   Direction: 350°N
Pressure: 30.12"   Gusts: NA
Location:  30.44°N, 84.28°W
Report Text: KTLH 200053Z 35006KT 10SM -RA OVC100 12/09 A3012 RMK AO2 SLP199 P0002 T01170089 $
Loading
Personal Weather Stations






























Interactive Weather Map New forecast layout! Learn more

10-Day Weather Forecast

Advertisements
Track Severe Weather on mobile